sensor_id;sensor_type;location;lat;lon;timestamp;P1;durP1;ratioP1;P2;durP2;ratioP2
2892;SDS011;1456;51.840;12.184;2023-07-16T00:01:03;1.80;;;0.77;;
2892;SDS011;1456;51.840;12.184;2023-07-16T00:03:30;0.80;;;0.80;;
2892;SDS011;1456;51.840;12.184;2023-07-16T00:05:57;2.10;;;1.13;;
2892;SDS011;1456;51.840;12.184;2023-07-16T00:08:24;1.27;;;1.17;;
2892;SDS011;1456;51.840;12.184;2023-07-16T00:10:51;1.10;;;1.00;;
2892;SDS011;1456;51.840;12.184;2023-07-16T00:13:18;0.97;;;0.93;;
2892;SDS011;1456;51.840;12.184;2023-07-16T00:15:44;0.70;;;0.70;;
2892;SDS011;1456;51.840;12.184;2023-07-16T00:18:09;1.10;;;0.70;;
2892;SDS011;1456;51.840;12.184;2023-07-16T00:20:37;1.13;;;0.97;;
2892;SDS011;1456;51.840;12.184;2023-07-16T00:23:04;1.23;;;0.60;;
2892;SDS011;1456;51.840;12.184;2023-07-16T00:25:30;2.10;;;0.70;;
2892;SDS011;1456;51.840;12.184;2023-07-16T00:27:56;0.87;;;0.87;;
2892;SDS011;1456;51.840;12.184;2023-07-16T00:30:24;1.70;;;0.47;;
2892;SDS011;1456;51.840;12.184;2023-07-16T00:32:50;1.23;;;0.70;;
2892;SDS011;1456;51.840;12.184;2023-07-16T00:35:15;2.50;;;2.40;;
2892;SDS011;1456;51.840;12.184;2023-07-16T00:37:41;0.80;;;0.80;;
2892;SDS011;1456;51.840;12.184;2023-07-16T00:40:07;1.20;;;1.10;;
2892;SDS011;1456;51.840;12.184;2023-07-16T00:42:33;1.80;;;1.67;;
2892;SDS011;1456;51.840;12.184;2023-07-16T00:44:59;0.50;;;0.50;;
2892;SDS011;1456;51.840;12.184;2023-07-16T00:47:24;0.73;;;0.73;;
2892;SDS011;1456;51.840;12.184;2023-07-16T00:49:50;0.93;;;0.93;;
2892;SDS011;1456;51.840;12.184;2023-07-16T00:52:18;1.57;;;1.47;;
2892;SDS011;1456;51.840;12.184;2023-07-16T00:54:45;0.70;;;0.50;;
2892;SDS011;1456;51.840;12.184;2023-07-16T00:57:11;4.03;;;0.90;;
2892;SDS011;1456;51.840;12.184;2023-07-16T00:59:36;1.43;;;0.90;;
2892;SDS011;1456;51.840;12.184;2023-07-16T01:02:02;0.50;;;0.50;;
2892;SDS011;1456;51.840;12.184;2023-07-16T01:04:29;0.87;;;0.87;;
2892;SDS011;1456;51.840;12.184;2023-07-16T01:07:00;1.10;;;1.10;;
2892;SDS011;1456;51.840;12.184;2023-07-16T01:09:28;0.60;;;0.60;;
2892;SDS011;1456;51.840;12.184;2023-07-16T01:11:55;0.80;;;0.80;;
2892;SDS011;1456;51.840;12.184;2023-07-16T01:14:22;0.80;;;0.80;;
2892;SDS011;1456;51.840;12.184;2023-07-16T01:16:51;1.07;;;1.03;;
2892;SDS011;1456;51.840;12.184;2023-07-16T01:19:23;1.80;;;0.83;;
2892;SDS011;1456;51.840;12.184;2023-07-16T01:24:53;1.00;;;1.00;;
2892;SDS011;1456;51.840;12.184;2023-07-16T01:30:23;1.97;;;1.10;;
2892;SDS011;1456;51.840;12.184;2023-07-16T01:32:54;1.53;;;1.10;;
2892;SDS011;1456;51.840;12.184;2023-07-16T01:35:21;0.70;;;0.70;;
2892;SDS011;1456;51.840;12.184;2023-07-16T01:37:47;1.90;;;1.80;;
2892;SDS011;1456;51.840;12.184;2023-07-16T01:40:13;1.30;;;1.30;;
2892;SDS011;1456;51.840;12.184;2023-07-16T01:42:40;1.20;;;1.20;;
2892;SDS011;1456;51.840;12.184;2023-07-16T01:45:06;3.43;;;1.07;;
2892;SDS011;1456;51.840;12.184;2023-07-16T01:50:14;2.20;;;0.73;;
2892;SDS011;1456;51.840;12.184;2023-07-16T01:52:44;1.10;;;1.00;;
2892;SDS011;1456;51.840;12.184;2023-07-16T01:55:09;0.53;;;0.53;;
2892;SDS011;1456;51.840;12.184;2023-07-16T01:57:35;5.70;;;1.07;;
2892;SDS011;1456;51.840;12.184;2023-07-16T02:00:02;0.67;;;0.67;;
2892;SDS011;1456;51.840;12.184;2023-07-16T02:02:28;1.10;;;0.57;;
2892;SDS011;1456;51.840;12.184;2023-07-16T02:04:56;1.80;;;1.17;;
2892;SDS011;1456;51.840;12.184;2023-07-16T02:07:22;1.10;;;1.00;;
2892;SDS011;1456;51.840;12.184;2023-07-16T02:09:56;0.80;;;0.80;;
2892;SDS011;1456;51.840;12.184;2023-07-16T02:12:22;0.80;;;0.80;;
2892;SDS011;1456;51.840;12.184;2023-07-16T02:14:48;0.57;;;0.57;;
2892;SDS011;1456;51.840;12.184;2023-07-16T02:17:17;0.80;;;0.70;;
2892;SDS011;1456;51.840;12.184;2023-07-16T02:19:43;0.80;;;0.60;;
2892;SDS011;1456;51.840;12.184;2023-07-16T02:22:15;0.83;;;0.60;;
2892;SDS011;1456;51.840;12.184;2023-07-16T02:24:41;1.13;;;0.97;;
2892;SDS011;1456;51.840;12.184;2023-07-16T02:27:11;0.60;;;0.60;;
2892;SDS011;1456;51.840;12.184;2023-07-16T02:29:36;1.53;;;1.43;;
2892;SDS011;1456;51.840;12.184;2023-07-16T02:32:02;2.90;;;2.70;;
2892;SDS011;1456;51.840;12.184;2023-07-16T02:34:29;1.97;;;0.57;;
2892;SDS011;1456;51.840;12.184;2023-07-16T02:36:55;1.87;;;1.67;;
2892;SDS011;1456;51.840;12.184;2023-07-16T02:39:21;2.40;;;1.43;;
2892;SDS011;1456;51.840;12.184;2023-07-16T02:41:47;0.60;;;0.60;;
2892;SDS011;1456;51.840;12.184;2023-07-16T02:44:13;0.50;;;0.50;;
2892;SDS011;1456;51.840;12.184;2023-07-16T02:46:39;0.43;;;0.43;;
2892;SDS011;1456;51.840;12.184;2023-07-16T02:49:07;1.47;;;0.80;;
2892;SDS011;1456;51.840;12.184;2023-07-16T02:51:34;1.70;;;0.47;;
2892;SDS011;1456;51.840;12.184;2023-07-16T02:54:00;0.47;;;0.47;;
2892;SDS011;1456;51.840;12.184;2023-07-16T02:56:25;0.70;;;0.70;;
2892;SDS011;1456;51.840;12.184;2023-07-16T02:58:51;0.70;;;0.70;;
2892;SDS011;1456;51.840;12.184;2023-07-16T03:01:16;0.60;;;0.60;;
2892;SDS011;1456;51.840;12.184;2023-07-16T03:03:43;0.70;;;0.60;;
2892;SDS011;1456;51.840;12.184;2023-07-16T03:06:12;0.93;;;0.80;;
2892;SDS011;1456;51.840;12.184;2023-07-16T03:08:37;0.80;;;0.80;;
2892;SDS011;1456;51.840;12.184;2023-07-16T03:11:03;1.03;;;0.60;;
2892;SDS011;1456;51.840;12.184;2023-07-16T03:13:29;0.60;;;0.50;;
2892;SDS011;1456;51.840;12.184;2023-07-16T03:15:56;0.90;;;0.90;;
2892;SDS011;1456;51.840;12.184;2023-07-16T03:18:22;0.70;;;0.70;;
2892;SDS011;1456;51.840;12.184;2023-07-16T03:20:52;1.43;;;1.40;;
2892;SDS011;1456;51.840;12.184;2023-07-16T03:23:18;0.63;;;0.63;;
2892;SDS011;1456;51.840;12.184;2023-07-16T03:25:43;1.23;;;0.40;;
2892;SDS011;1456;51.840;12.184;2023-07-16T03:28:10;0.83;;;0.83;;
2892;SDS011;1456;51.840;12.184;2023-07-16T03:30:35;2.40;;;0.80;;
2892;SDS011;1456;51.840;12.184;2023-07-16T03:33:02;1.03;;;1.03;;
2892;SDS011;1456;51.840;12.184;2023-07-16T03:35:28;0.60;;;0.60;;
2892;SDS011;1456;51.840;12.184;2023-07-16T03:37:54;0.87;;;0.83;;
2892;SDS011;1456;51.840;12.184;2023-07-16T03:40:23;1.43;;;1.33;;
2892;SDS011;1456;51.840;12.184;2023-07-16T03:42:59;1.80;;;1.57;;
2892;SDS011;1456;51.840;12.184;2023-07-16T03:45:25;1.10;;;0.50;;
2892;SDS011;1456;51.840;12.184;2023-07-16T03:47:51;2.00;;;1.00;;
2892;SDS011;1456;51.840;12.184;2023-07-16T03:52:45;2.20;;;0.60;;
2892;SDS011;1456;51.840;12.184;2023-07-16T03:55:11;0.60;;;0.60;;
2892;SDS011;1456;51.840;12.184;2023-07-16T03:57:37;0.97;;;0.97;;
2892;SDS011;1456;51.840;12.184;2023-07-16T04:00:03;0.80;;;0.80;;
2892;SDS011;1456;51.840;12.184;2023-07-16T04:02:36;15.40;;;1.70;;
2892;SDS011;1456;51.840;12.184;2023-07-16T04:05:02;1.57;;;1.47;;
2892;SDS011;1456;51.840;12.184;2023-07-16T04:07:28;0.90;;;0.60;;
2892;SDS011;1456;51.840;12.184;2023-07-16T04:09:54;1.13;;;0.53;;
2892;SDS011;1456;51.840;12.184;2023-07-16T04:12:19;2.50;;;1.27;;
2892;SDS011;1456;51.840;12.184;2023-07-16T04:14:47;1.27;;;0.63;;
2892;SDS011;1456;51.840;12.184;2023-07-16T04:17:15;1.40;;;1.30;;
2892;SDS011;1456;51.840;12.184;2023-07-16T04:19:42;0.90;;;0.90;;
2892;SDS011;1456;51.840;12.184;2023-07-16T04:22:09;0.57;;;0.40;;
2892;SDS011;1456;51.840;12.184;2023-07-16T04:24:36;1.17;;;1.00;;
2892;SDS011;1456;51.840;12.184;2023-07-16T04:27:02;1.33;;;1.23;;
2892;SDS011;1456;51.840;12.184;2023-07-16T04:29:30;1.10;;;1.10;;
2892;SDS011;1456;51.840;12.184;2023-07-16T04:31:56;2.50;;;1.53;;
2892;SDS011;1456;51.840;12.184;2023-07-16T04:34:21;0.80;;;0.73;;
2892;SDS011;1456;51.840;12.184;2023-07-16T04:36:47;1.17;;;1.07;;
2892;SDS011;1456;51.840;12.184;2023-07-16T04:39:13;1.73;;;1.47;;
2892;SDS011;1456;51.840;12.184;2023-07-16T04:41:38;0.70;;;0.70;;
2892;SDS011;1456;51.840;12.184;2023-07-16T04:44:06;0.90;;;0.60;;
2892;SDS011;1456;51.840;12.184;2023-07-16T04:46:33;0.83;;;0.83;;
2892;SDS011;1456;51.840;12.184;2023-07-16T04:48:59;1.20;;;0.70;;
2892;SDS011;1456;51.840;12.184;2023-07-16T04:51:24;0.83;;;0.83;;
2892;SDS011;1456;51.840;12.184;2023-07-16T04:53:50;0.53;;;0.53;;
2892;SDS011;1456;51.840;12.184;2023-07-16T04:56:16;1.53;;;1.43;;
2892;SDS011;1456;51.840;12.184;2023-07-16T04:58:43;8.67;;;1.70;;
2892;SDS011;1456;51.840;12.184;2023-07-16T05:01:09;1.00;;;0.80;;
2892;SDS011;1456;51.840;12.184;2023-07-16T05:03:41;0.90;;;0.60;;
2892;SDS011;1456;51.840;12.184;2023-07-16T05:06:06;3.73;;;0.93;;
2892;SDS011;1456;51.840;12.184;2023-07-16T05:08:32;0.77;;;0.77;;
2892;SDS011;1456;51.840;12.184;2023-07-16T05:10:58;1.23;;;1.10;;
2892;SDS011;1456;51.840;12.184;2023-07-16T05:13:24;2.40;;;0.90;;
2892;SDS011;1456;51.840;12.184;2023-07-16T05:15:49;3.60;;;1.77;;
2892;SDS011;1456;51.840;12.184;2023-07-16T05:18:15;1.90;;;1.47;;
2892;SDS011;1456;51.840;12.184;2023-07-16T05:20:41;0.40;;;0.40;;
2892;SDS011;1456;51.840;12.184;2023-07-16T05:23:07;0.70;;;0.70;;
2892;SDS011;1456;51.840;12.184;2023-07-16T05:25:32;0.57;;;0.57;;
2892;SDS011;1456;51.840;12.184;2023-07-16T05:27:58;1.23;;;0.50;;
2892;SDS011;1456;51.840;12.184;2023-07-16T05:30:26;2.20;;;0.93;;
2892;SDS011;1456;51.840;12.184;2023-07-16T05:32:53;2.10;;;0.40;;
2892;SDS011;1456;51.840;12.184;2023-07-16T05:35:19;1.40;;;1.00;;
2892;SDS011;1456;51.840;12.184;2023-07-16T05:37:46;0.90;;;0.50;;
2892;SDS011;1456;51.840;12.184;2023-07-16T05:40:12;1.33;;;0.60;;
2892;SDS011;1456;51.840;12.184;2023-07-16T05:42:38;1.30;;;0.57;;
2892;SDS011;1456;51.840;12.184;2023-07-16T05:45:03;0.50;;;0.50;;
2892;SDS011;1456;51.840;12.184;2023-07-16T05:47:29;0.70;;;0.70;;
2892;SDS011;1456;51.840;12.184;2023-07-16T05:49:55;2.87;;;0.60;;
2892;SDS011;1456;51.840;12.184;2023-07-16T05:52:26;0.50;;;0.50;;
2892;SDS011;1456;51.840;12.184;2023-07-16T05:54:57;0.73;;;0.73;;
2892;SDS011;1456;51.840;12.184;2023-07-16T05:57:24;0.60;;;0.50;;
2892;SDS011;1456;51.840;12.184;2023-07-16T05:59:51;0.60;;;0.50;;
2892;SDS011;1456;51.840;12.184;2023-07-16T06:02:17;0.87;;;0.47;;
2892;SDS011;1456;51.840;12.184;2023-07-16T06:04:45;0.60;;;0.50;;
2892;SDS011;1456;51.840;12.184;2023-07-16T06:07:12;0.60;;;0.60;;
2892;SDS011;1456;51.840;12.184;2023-07-16T06:09:38;0.77;;;0.50;;
2892;SDS011;1456;51.840;12.184;2023-07-16T06:12:04;0.97;;;0.87;;
2892;SDS011;1456;51.840;12.184;2023-07-16T06:14:30;0.63;;;0.60;;
2892;SDS011;1456;51.840;12.184;2023-07-16T06:16:56;0.53;;;0.50;;
2892;SDS011;1456;51.840;12.184;2023-07-16T06:19:22;1.33;;;1.07;;
2892;SDS011;1456;51.840;12.184;2023-07-16T06:21:49;0.80;;;0.80;;
2892;SDS011;1456;51.840;12.184;2023-07-16T06:24:15;0.80;;;0.80;;
2892;SDS011;1456;51.840;12.184;2023-07-16T06:26:44;0.43;;;0.43;;
2892;SDS011;1456;51.840;12.184;2023-07-16T06:29:12;0.60;;;0.60;;
2892;SDS011;1456;51.840;12.184;2023-07-16T06:31:37;0.40;;;0.40;;
2892;SDS011;1456;51.840;12.184;2023-07-16T06:34:03;0.40;;;0.40;;
2892;SDS011;1456;51.840;12.184;2023-07-16T06:36:29;0.63;;;0.63;;
2892;SDS011;1456;51.840;12.184;2023-07-16T06:38:54;1.10;;;1.10;;
2892;SDS011;1456;51.840;12.184;2023-07-16T06:41:20;0.70;;;0.60;;
2892;SDS011;1456;51.840;12.184;2023-07-16T06:43:46;1.13;;;1.00;;
2892;SDS011;1456;51.840;12.184;2023-07-16T06:46:12;0.73;;;0.60;;
2892;SDS011;1456;51.840;12.184;2023-07-16T06:48:37;0.50;;;0.50;;
2892;SDS011;1456;51.840;12.184;2023-07-16T06:51:03;1.53;;;1.43;;
2892;SDS011;1456;51.840;12.184;2023-07-16T06:53:29;0.70;;;0.70;;
2892;SDS011;1456;51.840;12.184;2023-07-16T06:55:54;0.50;;;0.50;;
2892;SDS011;1456;51.840;12.184;2023-07-16T06:58:20;0.83;;;0.80;;
2892;SDS011;1456;51.840;12.184;2023-07-16T07:00:58;0.70;;;0.70;;
2892;SDS011;1456;51.840;12.184;2023-07-16T07:03:24;0.80;;;0.80;;
2892;SDS011;1456;51.840;12.184;2023-07-16T07:05:51;2.70;;;0.77;;
2892;SDS011;1456;51.840;12.184;2023-07-16T07:08:16;0.70;;;0.70;;
2892;SDS011;1456;51.840;12.184;2023-07-16T07:10:43;1.10;;;1.10;;
2892;SDS011;1456;51.840;12.184;2023-07-16T07:13:09;1.43;;;1.20;;
2892;SDS011;1456;51.840;12.184;2023-07-16T07:15:38;3.20;;;3.00;;
2892;SDS011;1456;51.840;12.184;2023-07-16T07:18:03;1.07;;;1.07;;
2892;SDS011;1456;51.840;12.184;2023-07-16T07:20:29;2.13;;;2.13;;
2892;SDS011;1456;51.840;12.184;2023-07-16T07:22:54;2.07;;;2.07;;
2892;SDS011;1456;51.840;12.184;2023-07-16T07:25:20;2.13;;;2.13;;
2892;SDS011;1456;51.840;12.184;2023-07-16T07:27:46;1.60;;;1.50;;
2892;SDS011;1456;51.840;12.184;2023-07-16T07:30:17;1.80;;;1.80;;
2892;SDS011;1456;51.840;12.184;2023-07-16T07:32:44;1.23;;;1.23;;
2892;SDS011;1456;51.840;12.184;2023-07-16T07:35:10;3.13;;;3.13;;
2892;SDS011;1456;51.840;12.184;2023-07-16T07:37:42;3.40;;;3.30;;
2892;SDS011;1456;51.840;12.184;2023-07-16T07:42:39;4.10;;;4.10;;
2892;SDS011;1456;51.840;12.184;2023-07-16T07:45:07;4.17;;;4.17;;
2892;SDS011;1456;51.840;12.184;2023-07-16T07:47:33;4.30;;;4.20;;
2892;SDS011;1456;51.840;12.184;2023-07-16T07:50:00;3.47;;;3.47;;
2892;SDS011;1456;51.840;12.184;2023-07-16T07:52:27;4.33;;;4.23;;
2892;SDS011;1456;51.840;12.184;2023-07-16T07:54:55;5.83;;;4.87;;
2892;SDS011;1456;51.840;12.184;2023-07-16T07:57:21;4.50;;;4.40;;
2892;SDS011;1456;51.840;12.184;2023-07-16T07:59:53;5.50;;;5.50;;
2892;SDS011;1456;51.840;12.184;2023-07-16T08:02:23;4.70;;;4.60;;
2892;SDS011;1456;51.840;12.184;2023-07-16T08:04:54;6.10;;;6.00;;
2892;SDS011;1456;51.840;12.184;2023-07-16T08:07:20;5.47;;;5.37;;
2892;SDS011;1456;51.840;12.184;2023-07-16T08:09:48;6.00;;;5.80;;
2892;SDS011;1456;51.840;12.184;2023-07-16T08:12:14;5.70;;;5.70;;
2892;SDS011;1456;51.840;12.184;2023-07-16T08:14:40;5.90;;;5.80;;
2892;SDS011;1456;51.840;12.184;2023-07-16T08:17:07;6.20;;;6.10;;
2892;SDS011;1456;51.840;12.184;2023-07-16T08:19:33;6.27;;;6.17;;
2892;SDS011;1456;51.840;12.184;2023-07-16T08:21:59;5.80;;;5.70;;
2892;SDS011;1456;51.840;12.184;2023-07-16T08:24:24;7.00;;;6.70;;
2892;SDS011;1456;51.840;12.184;2023-07-16T08:26:52;7.40;;;7.30;;
2892;SDS011;1456;51.840;12.184;2023-07-16T08:29:18;7.30;;;7.20;;
2892;SDS011;1456;51.840;12.184;2023-07-16T08:31:45;7.77;;;7.67;;
2892;SDS011;1456;51.840;12.184;2023-07-16T08:34:12;7.60;;;7.40;;
2892;SDS011;1456;51.840;12.184;2023-07-16T08:36:40;6.70;;;6.60;;
2892;SDS011;1456;51.840;12.184;2023-07-16T08:39:07;7.50;;;7.40;;
2892;SDS011;1456;51.840;12.184;2023-07-16T08:41:33;7.67;;;7.57;;
2892;SDS011;1456;51.840;12.184;2023-07-16T08:43:59;7.80;;;7.70;;
2892;SDS011;1456;51.840;12.184;2023-07-16T08:46:27;9.77;;;9.30;;
2892;SDS011;1456;51.840;12.184;2023-07-16T08:48:56;7.97;;;7.87;;
2892;SDS011;1456;51.840;12.184;2023-07-16T08:51:23;9.27;;;9.07;;
2892;SDS011;1456;51.840;12.184;2023-07-16T08:53:50;10.13;;;9.83;;
2892;SDS011;1456;51.840;12.184;2023-07-16T08:56:17;9.50;;;9.30;;
2892;SDS011;1456;51.840;12.184;2023-07-16T08:58:44;9.57;;;9.33;;
2892;SDS011;1456;51.840;12.184;2023-07-16T09:01:13;9.13;;;9.03;;
2892;SDS011;1456;51.840;12.184;2023-07-16T09:03:42;9.37;;;9.17;;
2892;SDS011;1456;51.840;12.184;2023-07-16T09:06:08;15.70;;;15.40;;
2892;SDS011;1456;51.840;12.184;2023-07-16T09:08:33;15.90;;;15.60;;
2892;SDS011;1456;51.840;12.184;2023-07-16T09:10:59;16.03;;;15.73;;
2892;SDS011;1456;51.840;12.184;2023-07-16T09:13:26;15.90;;;15.50;;
2892;SDS011;1456;51.840;12.184;2023-07-16T09:15:56;13.50;;;13.30;;
2892;SDS011;1456;51.840;12.184;2023-07-16T09:18:26;16.27;;;15.87;;
2892;SDS011;1456;51.840;12.184;2023-07-16T09:20:56;15.77;;;15.47;;
2892;SDS011;1456;51.840;12.184;2023-07-16T09:23:26;15.80;;;15.50;;
2892;SDS011;1456;51.840;12.184;2023-07-16T09:25:53;16.73;;;16.33;;
2892;SDS011;1456;51.840;12.184;2023-07-16T09:28:19;16.13;;;15.73;;
2892;SDS011;1456;51.840;12.184;2023-07-16T09:30:46;15.83;;;15.53;;
2892;SDS011;1456;51.840;12.184;2023-07-16T09:33:17;17.50;;;17.20;;
2892;SDS011;1456;51.840;12.184;2023-07-16T09:35:48;18.20;;;17.80;;
2892;SDS011;1456;51.840;12.184;2023-07-16T09:38:18;18.30;;;17.90;;
2892;SDS011;1456;51.840;12.184;2023-07-16T09:40:45;10.23;;;9.93;;
2892;SDS011;1456;51.840;12.184;2023-07-16T09:43:11;9.63;;;9.47;;
2892;SDS011;1456;51.840;12.184;2023-07-16T09:45:38;10.53;;;10.23;;
2892;SDS011;1456;51.840;12.184;2023-07-16T09:48:04;9.60;;;9.50;;
2892;SDS011;1456;51.840;12.184;2023-07-16T09:50:36;9.33;;;9.13;;
2892;SDS011;1456;51.840;12.184;2023-07-16T09:53:08;10.60;;;10.20;;
2892;SDS011;1456;51.840;12.184;2023-07-16T09:55:35;9.77;;;9.67;;
2892;SDS011;1456;51.840;12.184;2023-07-16T09:58:09;15.97;;;10.20;;
2892;SDS011;1456;51.840;12.184;2023-07-16T10:00:40;8.20;;;8.10;;
2892;SDS011;1456;51.840;12.184;2023-07-16T10:03:07;9.10;;;9.00;;
2892;SDS011;1456;51.840;12.184;2023-07-16T10:05:36;9.40;;;9.20;;
2892;SDS011;1456;51.840;12.184;2023-07-16T10:08:02;9.50;;;9.40;;
2892;SDS011;1456;51.840;12.184;2023-07-16T10:10:41;9.63;;;9.53;;
2892;SDS011;1456;51.840;12.184;2023-07-16T10:13:10;9.30;;;9.20;;
2892;SDS011;1456;51.840;12.184;2023-07-16T10:15:37;9.70;;;9.60;;
2892;SDS011;1456;51.840;12.184;2023-07-16T10:18:04;11.00;;;10.63;;
2892;SDS011;1456;51.840;12.184;2023-07-16T10:20:33;9.40;;;9.30;;
2892;SDS011;1456;51.840;12.184;2023-07-16T10:23:20;10.00;;;9.80;;
2892;SDS011;1456;51.840;12.184;2023-07-16T10:26:04;10.10;;;10.00;;
2892;SDS011;1456;51.840;12.184;2023-07-16T10:28:38;9.33;;;9.23;;
2892;SDS011;1456;51.840;12.184;2023-07-16T10:31:04;9.73;;;9.50;;
2892;SDS011;1456;51.840;12.184;2023-07-16T10:36:20;10.10;;;10.00;;
2892;SDS011;1456;51.840;12.184;2023-07-16T10:38:46;10.60;;;10.33;;
2892;SDS011;1456;51.840;12.184;2023-07-16T10:43:42;9.83;;;9.67;;
2892;SDS011;1456;51.840;12.184;2023-07-16T10:46:10;10.70;;;10.50;;
2892;SDS011;1456;51.840;12.184;2023-07-16T10:48:35;11.00;;;10.60;;
2892;SDS011;1456;51.840;12.184;2023-07-16T10:51:01;10.07;;;9.87;;
2892;SDS011;1456;51.840;12.184;2023-07-16T10:53:26;10.57;;;10.37;;
2892;SDS011;1456;51.840;12.184;2023-07-16T10:55:53;10.17;;;9.97;;
2892;SDS011;1456;51.840;12.184;2023-07-16T10:58:19;10.73;;;10.53;;
2892;SDS011;1456;51.840;12.184;2023-07-16T11:00:47;9.10;;;8.90;;
2892;SDS011;1456;51.840;12.184;2023-07-16T11:03:15;9.77;;;9.67;;
2892;SDS011;1456;51.840;12.184;2023-07-16T11:05:44;10.67;;;10.40;;
2892;SDS011;1456;51.840;12.184;2023-07-16T11:08:11;9.90;;;9.60;;
2892;SDS011;1456;51.840;12.184;2023-07-16T11:10:53;10.17;;;9.97;;
2892;SDS011;1456;51.840;12.184;2023-07-16T11:13:24;10.70;;;10.50;;
2892;SDS011;1456;51.840;12.184;2023-07-16T11:15:55;10.87;;;10.67;;
2892;SDS011;1456;51.840;12.184;2023-07-16T11:18:24;12.63;;;11.90;;
2892;SDS011;1456;51.840;12.184;2023-07-16T11:20:54;10.07;;;9.87;;
2892;SDS011;1456;51.840;12.184;2023-07-16T11:23:19;11.63;;;11.43;;
2892;SDS011;1456;51.840;12.184;2023-07-16T11:25:46;11.23;;;11.03;;
2892;SDS011;1456;51.840;12.184;2023-07-16T11:28:14;11.00;;;10.80;;
2892;SDS011;1456;51.840;12.184;2023-07-16T11:30:41;10.80;;;10.60;;
2892;SDS011;1456;51.840;12.184;2023-07-16T11:33:14;11.27;;;11.07;;
2892;SDS011;1456;51.840;12.184;2023-07-16T11:35:40;11.10;;;10.73;;
2892;SDS011;1456;51.840;12.184;2023-07-16T11:38:06;10.40;;;10.00;;
2892;SDS011;1456;51.840;12.184;2023-07-16T11:40:33;10.80;;;10.50;;
2892;SDS011;1456;51.840;12.184;2023-07-16T11:43:10;10.57;;;10.37;;
2892;SDS011;1456;51.840;12.184;2023-07-16T11:45:36;10.63;;;10.43;;
2892;SDS011;1456;51.840;12.184;2023-07-16T11:48:03;12.20;;;11.70;;
2892;SDS011;1456;51.840;12.184;2023-07-16T11:50:29;11.13;;;10.83;;
2892;SDS011;1456;51.840;12.184;2023-07-16T11:52:56;11.10;;;10.80;;
2892;SDS011;1456;51.840;12.184;2023-07-16T11:57:58;10.77;;;10.57;;
2892;SDS011;1456;51.840;12.184;2023-07-16T12:00:26;10.70;;;10.50;;
2892;SDS011;1456;51.840;12.184;2023-07-16T12:02:54;10.23;;;10.13;;
2892;SDS011;1456;51.840;12.184;2023-07-16T12:05:21;10.97;;;10.77;;
2892;SDS011;1456;51.840;12.184;2023-07-16T12:07:50;11.50;;;11.10;;
2892;SDS011;1456;51.840;12.184;2023-07-16T12:12:45;11.33;;;11.03;;
2892;SDS011;1456;51.840;12.184;2023-07-16T12:15:12;11.20;;;11.00;;
2892;SDS011;1456;51.840;12.184;2023-07-16T12:17:40;11.03;;;10.83;;
2892;SDS011;1456;51.840;12.184;2023-07-16T12:20:05;11.03;;;10.83;;
2892;SDS011;1456;51.840;12.184;2023-07-16T12:22:31;10.87;;;10.67;;
2892;SDS011;1456;51.840;12.184;2023-07-16T12:24:57;11.10;;;10.90;;
2892;SDS011;1456;51.840;12.184;2023-07-16T12:27:23;10.80;;;10.60;;
2892;SDS011;1456;51.840;12.184;2023-07-16T12:29:51;11.10;;;10.90;;
2892;SDS011;1456;51.840;12.184;2023-07-16T12:32:17;11.20;;;11.00;;
2892;SDS011;1456;51.840;12.184;2023-07-16T12:34:43;10.70;;;10.50;;
2892;SDS011;1456;51.840;12.184;2023-07-16T12:37:11;10.40;;;10.20;;
2892;SDS011;1456;51.840;12.184;2023-07-16T12:39:39;10.80;;;10.60;;
2892;SDS011;1456;51.840;12.184;2023-07-16T12:42:05;11.27;;;10.97;;
2892;SDS011;1456;51.840;12.184;2023-07-16T12:44:30;11.57;;;11.13;;
2892;SDS011;1456;51.840;12.184;2023-07-16T12:46:56;12.10;;;11.80;;
2892;SDS011;1456;51.840;12.184;2023-07-16T12:49:22;13.77;;;12.53;;
2892;SDS011;1456;51.840;12.184;2023-07-16T12:51:51;11.13;;;10.83;;
2892;SDS011;1456;51.840;12.184;2023-07-16T12:54:17;11.07;;;10.87;;
2892;SDS011;1456;51.840;12.184;2023-07-16T12:56:43;11.40;;;11.10;;
2892;SDS011;1456;51.840;12.184;2023-07-16T12:59:11;10.53;;;10.33;;
2892;SDS011;1456;51.840;12.184;2023-07-16T13:01:37;10.97;;;10.57;;
2892;SDS011;1456;51.840;12.184;2023-07-16T13:04:03;11.00;;;10.60;;
2892;SDS011;1456;51.840;12.184;2023-07-16T13:06:28;12.23;;;11.80;;
2892;SDS011;1456;51.840;12.184;2023-07-16T13:08:54;12.50;;;12.07;;
2892;SDS011;1456;51.840;12.184;2023-07-16T13:11:20;11.00;;;10.80;;
2892;SDS011;1456;51.840;12.184;2023-07-16T13:13:48;10.90;;;10.70;;
2892;SDS011;1456;51.840;12.184;2023-07-16T13:16:16;11.33;;;11.13;;
2892;SDS011;1456;51.840;12.184;2023-07-16T13:21:12;11.80;;;11.50;;
2892;SDS011;1456;51.840;12.184;2023-07-16T13:23:42;12.10;;;11.83;;
2892;SDS011;1456;51.840;12.184;2023-07-16T13:26:07;11.40;;;11.10;;
2892;SDS011;1456;51.840;12.184;2023-07-16T13:28:34;10.80;;;10.60;;
2892;SDS011;1456;51.840;12.184;2023-07-16T13:31:00;11.13;;;10.90;;
2892;SDS011;1456;51.840;12.184;2023-07-16T13:33:25;10.90;;;10.70;;
2892;SDS011;1456;51.840;12.184;2023-07-16T13:35:51;11.40;;;11.20;;
2892;SDS011;1456;51.840;12.184;2023-07-16T13:38:17;11.40;;;11.20;;
2892;SDS011;1456;51.840;12.184;2023-07-16T13:40:42;10.53;;;10.43;;
2892;SDS011;1456;51.840;12.184;2023-07-16T13:43:08;12.30;;;11.70;;
2892;SDS011;1456;51.840;12.184;2023-07-16T13:45:34;11.03;;;10.70;;
2892;SDS011;1456;51.840;12.184;2023-07-16T13:48:03;10.97;;;10.77;;
2892;SDS011;1456;51.840;12.184;2023-07-16T13:50:30;11.27;;;11.03;;
2892;SDS011;1456;51.840;12.184;2023-07-16T13:52:56;11.87;;;11.40;;
2892;SDS011;1456;51.840;12.184;2023-07-16T13:55:23;11.10;;;10.70;;
2892;SDS011;1456;51.840;12.184;2023-07-16T13:57:48;12.07;;;11.80;;
2892;SDS011;1456;51.840;12.184;2023-07-16T14:00:14;11.90;;;11.60;;
2892;SDS011;1456;51.840;12.184;2023-07-16T14:02:41;11.80;;;11.30;;
2892;SDS011;1456;51.840;12.184;2023-07-16T14:05:07;11.10;;;10.90;;
2892;SDS011;1456;51.840;12.184;2023-07-16T14:07:33;11.60;;;11.40;;
2892;SDS011;1456;51.840;12.184;2023-07-16T14:09:59;11.37;;;11.10;;
2892;SDS011;1456;51.840;12.184;2023-07-16T14:12:25;11.50;;;11.20;;
2892;SDS011;1456;51.840;12.184;2023-07-16T14:14:50;11.93;;;11.60;;
2892;SDS011;1456;51.840;12.184;2023-07-16T14:17:17;12.93;;;12.53;;
2892;SDS011;1456;51.840;12.184;2023-07-16T14:19:43;10.90;;;10.70;;
2892;SDS011;1456;51.840;12.184;2023-07-16T14:22:09;10.97;;;10.77;;
2892;SDS011;1456;51.840;12.184;2023-07-16T14:24:37;12.10;;;11.80;;
2892;SDS011;1456;51.840;12.184;2023-07-16T14:27:04;12.47;;;11.97;;
2892;SDS011;1456;51.840;12.184;2023-07-16T14:29:31;11.50;;;11.20;;
2892;SDS011;1456;51.840;12.184;2023-07-16T14:31:59;12.00;;;11.70;;
2892;SDS011;1456;51.840;12.184;2023-07-16T14:34:26;12.10;;;11.80;;
2892;SDS011;1456;51.840;12.184;2023-07-16T14:36:52;12.40;;;12.10;;
2892;SDS011;1456;51.840;12.184;2023-07-16T14:39:18;11.90;;;11.60;;
2892;SDS011;1456;51.840;12.184;2023-07-16T14:41:44;12.40;;;12.10;;
2892;SDS011;1456;51.840;12.184;2023-07-16T14:44:10;12.00;;;11.80;;
2892;SDS011;1456;51.840;12.184;2023-07-16T14:46:37;12.07;;;11.77;;
2892;SDS011;1456;51.840;12.184;2023-07-16T14:49:02;12.30;;;12.00;;
2892;SDS011;1456;51.840;12.184;2023-07-16T14:51:34;12.30;;;11.80;;
2892;SDS011;1456;51.840;12.184;2023-07-16T14:54:07;12.67;;;12.37;;
2892;SDS011;1456;51.840;12.184;2023-07-16T14:56:33;12.00;;;11.80;;
2892;SDS011;1456;51.840;12.184;2023-07-16T14:59:01;12.20;;;11.90;;
2892;SDS011;1456;51.840;12.184;2023-07-16T15:01:27;12.30;;;11.90;;
2892;SDS011;1456;51.840;12.184;2023-07-16T15:03:53;12.20;;;11.90;;
2892;SDS011;1456;51.840;12.184;2023-07-16T15:06:19;12.20;;;11.90;;
2892;SDS011;1456;51.840;12.184;2023-07-16T15:08:45;11.47;;;11.17;;
2892;SDS011;1456;51.840;12.184;2023-07-16T15:11:13;11.80;;;11.57;;
2892;SDS011;1456;51.840;12.184;2023-07-16T15:13:39;19.17;;;18.67;;
2892;SDS011;1456;51.840;12.184;2023-07-16T15:16:06;18.93;;;18.20;;
2892;SDS011;1456;51.840;12.184;2023-07-16T15:18:32;18.40;;;17.50;;